KBLI/BLI METAR and TAF weather

Enter ICAO airport designator
Station Type Date Time Source
KBLI METAR 2019/04/25 20:53 UTC NOAA

KBLI 252053Z 27008KT 240V310 10SM CLR 14/06 A3014 RMK AO2 SLP215 T01440056 58022


Station Type Date Time Source
KBLI Decoded METAR 2019/04/25 20:53 UTC NOAA

BELLINGHAM INTERNATIONAL AIRPORT, WA, United States (KBLI) 48-48N 122-32W 50M
Apr 25, 2019 - 04:53 PM EDT / 2019.04.25 2053 UTC
Wind: from the W (270 degrees) at 9 MPH (8 KT) (direction variable):0
Visibility: 10 mile(s):0
Sky conditions: clear
Temperature: 57.9 F (14.4 C)
Dew Point: 42.1 F (5.6 C)
Relative Humidity: 55%
Pressure (altimeter): 30.14 in. Hg (1020 hPa)
Pressure tendency: 0.06 inches (2.2 hPa) lower than three hours ago
ob: KBLI 252053Z 27008KT 240V310 10SM CLR 14/06 A3014 RMK AO2 SLP215 T01440056 58022
cycle: 21

Station Type Date Time Source
KBLI TAF 2019/04/25 18:22 UTC NOAA

TAF KBLI 251720Z 2518/2618 02005KT P6SM BKN200
FM251900 30006KT P6SM SCT120 OVC200
FM260400 20004KT P6SM BKN070 OVC200
FM261400 17005KT P6SM SCT250

Example: see airport list